Terminal Aerodrome Forecast
Issued by NWS

Home | Current Version | Previous Version | Text Only | Print | Product List | Glossary On
Versions: 1 2 3 4 5 6 7 8 9 10 11 12 13 14
000
FTUS45 KRIW 291720
TAFPNA
TAF
KPNA 291720Z 2918/3018 VRB05KT P6SM FEW110
     FM291930 30012G20KT P6SM FEW110
     FM300200 29007KT P6SM FEW120
      AMD LTD TO CLD VIS AND WIND=

USA.gov is the U.S. government's official web portal to all federal, state and local government web resources and services.